sensor_id;sensor_type;location;lat;lon;timestamp;pressure;altitude;pressure_sealevel;temperature;humidity
41254;BME280;26987;59.928;30.306;2023-08-01T00:00:26;100431.53;;;16.18;100.00
41254;BME280;26987;59.928;30.306;2023-08-01T00:02:54;100433.69;;;16.16;100.00
41254;BME280;26987;59.928;30.306;2023-08-01T00:05:23;100436.63;;;16.14;100.00
41254;BME280;26987;59.928;30.306;2023-08-01T00:07:51;100437.97;;;16.11;100.00
41254;BME280;26987;59.928;30.306;2023-08-01T00:10:19;100426.31;;;16.11;100.00
41254;BME280;26987;59.928;30.306;2023-08-01T00:12:47;100430.66;;;16.12;100.00
41254;BME280;26987;59.928;30.306;2023-08-01T00:15:15;100423.53;;;16.06;100.00
41254;BME280;26987;59.928;30.306;2023-08-01T00:17:43;100419.78;;;16.07;100.00
41254;BME280;26987;59.928;30.306;2023-08-01T00:20:11;100417.25;;;16.00;100.00
41254;BME280;26987;59.928;30.306;2023-08-01T00:22:40;100426.50;;;16.04;100.00
41254;BME280;26987;59.928;30.306;2023-08-01T00:25:08;100423.50;;;16.00;100.00
41254;BME280;26987;59.928;30.306;2023-08-01T00:27:36;100423.97;;;15.97;100.00
41254;BME280;26987;59.928;30.306;2023-08-01T00:30:05;100427.91;;;15.89;100.00
41254;BME280;26987;59.928;30.306;2023-08-01T00:32:34;100432.56;;;15.94;100.00
41254;BME280;26987;59.928;30.306;2023-08-01T00:35:02;100430.47;;;15.96;100.00
41254;BME280;26987;59.928;30.306;2023-08-01T00:37:29;100432.31;;;15.96;100.00
41254;BME280;26987;59.928;30.306;2023-08-01T00:39:59;100436.09;;;15.95;100.00
41254;BME280;26987;59.928;30.306;2023-08-01T00:42:27;100404.94;;;15.70;100.00
41254;BME280;26987;59.928;30.306;2023-08-01T00:44:54;100427.66;;;15.91;100.00
41254;BME280;26987;59.928;30.306;2023-08-01T00:47:23;100425.69;;;15.86;100.00
41254;BME280;26987;59.928;30.306;2023-08-01T00:49:51;100419.47;;;15.86;100.00
41254;BME280;26987;59.928;30.306;2023-08-01T00:52:19;100401.50;;;15.74;100.00
41254;BME280;26987;59.928;30.306;2023-08-01T00:54:46;100422.13;;;15.81;100.00
41254;BME280;26987;59.928;30.306;2023-08-01T00:57:16;100417.78;;;15.80;100.00
41254;BME280;26987;59.928;30.306;2023-08-01T00:59:44;100423.75;;;15.82;100.00
41254;BME280;26987;59.928;30.306;2023-08-01T01:02:12;100423.44;;;15.78;100.00
41254;BME280;26987;59.928;30.306;2023-08-01T01:04:40;100424.25;;;15.79;100.00
41254;BME280;26987;59.928;30.306;2023-08-01T01:07:08;100424.97;;;15.74;100.00
41254;BME280;26987;59.928;30.306;2023-08-01T01:09:36;100406.84;;;15.69;100.00
41254;BME280;26987;59.928;30.306;2023-08-01T01:12:05;100415.50;;;15.71;100.00
41254;BME280;26987;59.928;30.306;2023-08-01T01:14:35;100413.38;;;15.73;100.00
41254;BME280;26987;59.928;30.306;2023-08-01T01:17:03;100417.69;;;15.74;100.00
41254;BME280;26987;59.928;30.306;2023-08-01T01:19:31;100413.28;;;15.68;100.00
41254;BME280;26987;59.928;30.306;2023-08-01T01:22:02;100432.59;;;15.77;100.00
41254;BME280;26987;59.928;30.306;2023-08-01T01:24:32;100442.59;;;15.76;100.00
41254;BME280;26987;59.928;30.306;2023-08-01T01:27:01;100441.53;;;15.77;100.00
41254;BME280;26987;59.928;30.306;2023-08-01T01:29:32;100403.34;;;15.51;100.00
41254;BME280;26987;59.928;30.306;2023-08-01T01:32:01;100440.41;;;15.73;100.00
41254;BME280;26987;59.928;30.306;2023-08-01T01:34:30;100440.47;;;15.79;100.00
41254;BME280;26987;59.928;30.306;2023-08-01T01:36:59;100446.19;;;15.82;100.00
41254;BME280;26987;59.928;30.306;2023-08-01T01:39:27;100441.91;;;15.86;100.00
41254;BME280;26987;59.928;30.306;2023-08-01T01:41:56;100441.41;;;15.89;100.00
41254;BME280;26987;59.928;30.306;2023-08-01T01:44:24;100445.50;;;15.92;100.00
41254;BME280;26987;59.928;30.306;2023-08-01T01:46:51;100443.50;;;15.99;100.00
41254;BME280;26987;59.928;30.306;2023-08-01T01:49:19;100438.13;;;16.05;100.00
41254;BME280;26987;59.928;30.306;2023-08-01T01:51:47;100436.06;;;16.12;100.00
41254;BME280;26987;59.928;30.306;2023-08-01T01:54:16;100435.63;;;16.20;100.00
41254;BME280;26987;59.928;30.306;2023-08-01T01:56:44;100434.34;;;16.28;100.00
41254;BME280;26987;59.928;30.306;2023-08-01T01:59:12;100436.88;;;16.35;100.00
41254;BME280;26987;59.928;30.306;2023-08-01T02:01:40;100429.88;;;16.39;100.00
41254;BME280;26987;59.928;30.306;2023-08-01T02:04:08;100428.81;;;16.40;100.00
41254;BME280;26987;59.928;30.306;2023-08-01T02:06:36;100429.88;;;16.39;100.00
41254;BME280;26987;59.928;30.306;2023-08-01T02:09:04;100445.16;;;16.50;100.00
41254;BME280;26987;59.928;30.306;2023-08-01T02:11:33;100446.28;;;16.55;100.00
41254;BME280;26987;59.928;30.306;2023-08-01T02:14:01;100451.44;;;16.56;100.00
41254;BME280;26987;59.928;30.306;2023-08-01T02:16:29;100449.13;;;16.70;100.00
41254;BME280;26987;59.928;30.306;2023-08-01T02:18:57;100446.00;;;16.84;100.00
41254;BME280;26987;59.928;30.306;2023-08-01T02:21:25;100440.47;;;16.96;100.00
41254;BME280;26987;59.928;30.306;2023-08-01T02:23:53;100397.25;;;16.79;100.00
41254;BME280;26987;59.928;30.306;2023-08-01T02:26:21;100439.81;;;17.11;100.00
41254;BME280;26987;59.928;30.306;2023-08-01T02:28:52;100446.31;;;17.48;100.00
41254;BME280;26987;59.928;30.306;2023-08-01T02:31:20;100448.31;;;17.63;100.00
41254;BME280;26987;59.928;30.306;2023-08-01T02:33:47;100446.78;;;17.83;100.00
41254;BME280;26987;59.928;30.306;2023-08-01T02:36:15;100438.97;;;17.97;100.00
41254;BME280;26987;59.928;30.306;2023-08-01T02:38:44;100439.66;;;18.20;100.00
41254;BME280;26987;59.928;30.306;2023-08-01T02:41:12;100438.94;;;18.50;100.00
41254;BME280;26987;59.928;30.306;2023-08-01T02:43:40;100401.22;;;18.54;100.00
41254;BME280;26987;59.928;30.306;2023-08-01T02:46:10;100452.38;;;19.35;100.00
41254;BME280;26987;59.928;30.306;2023-08-01T02:48:38;100447.88;;;20.02;100.00
41254;BME280;26987;59.928;30.306;2023-08-01T02:51:06;100453.22;;;20.73;100.00
41254;BME280;26987;59.928;30.306;2023-08-01T02:53:35;100457.69;;;20.59;98.19
41254;BME280;26987;59.928;30.306;2023-08-01T02:56:03;100449.19;;;20.15;99.69
41254;BME280;26987;59.928;30.306;2023-08-01T02:58:33;100451.19;;;19.78;100.00
41254;BME280;26987;59.928;30.306;2023-08-01T03:01:01;100442.28;;;19.51;100.00
41254;BME280;26987;59.928;30.306;2023-08-01T03:03:34;100440.38;;;19.05;100.00
41254;BME280;26987;59.928;30.306;2023-08-01T03:06:03;100438.47;;;18.80;100.00
41254;BME280;26987;59.928;30.306;2023-08-01T03:08:34;100436.78;;;18.58;100.00
41254;BME280;26987;59.928;30.306;2023-08-01T03:11:02;100443.03;;;18.53;100.00
41254;BME280;26987;59.928;30.306;2023-08-01T03:13:30;100440.34;;;18.74;100.00
41254;BME280;26987;59.928;30.306;2023-08-01T03:15:58;100438.72;;;19.04;100.00
41254;BME280;26987;59.928;30.306;2023-08-01T03:18:26;100443.09;;;19.21;100.00
41254;BME280;26987;59.928;30.306;2023-08-01T03:20:58;100461.59;;;20.37;100.00
41254;BME280;26987;59.928;30.306;2023-08-01T03:23:25;100460.34;;;21.98;90.80
41254;BME280;26987;59.928;30.306;2023-08-01T03:25:53;100464.56;;;22.92;84.17
41254;BME280;26987;59.928;30.306;2023-08-01T03:28:22;100460.78;;;23.40;80.60
41254;BME280;26987;59.928;30.306;2023-08-01T03:30:50;100455.16;;;23.31;79.26
41254;BME280;26987;59.928;30.306;2023-08-01T03:33:20;100453.47;;;23.02;80.30
41254;BME280;26987;59.928;30.306;2023-08-01T03:35:47;100457.28;;;23.54;77.90
41254;BME280;26987;59.928;30.306;2023-08-01T03:38:17;100467.38;;;24.52;74.07
41254;BME280;26987;59.928;30.306;2023-08-01T03:40:45;100458.78;;;25.04;70.41
41254;BME280;26987;59.928;30.306;2023-08-01T03:43:13;100454.25;;;26.04;67.01
41254;BME280;26987;59.928;30.306;2023-08-01T03:45:40;100446.25;;;26.61;63.66
41254;BME280;26987;59.928;30.306;2023-08-01T03:48:08;100458.44;;;27.43;60.29
41254;BME280;26987;59.928;30.306;2023-08-01T03:50:36;100452.94;;;27.91;57.73
41254;BME280;26987;59.928;30.306;2023-08-01T03:53:04;100454.50;;;28.22;55.33
41254;BME280;26987;59.928;30.306;2023-08-01T03:55:34;100465.16;;;28.75;53.98
41254;BME280;26987;59.928;30.306;2023-08-01T03:58:03;100466.53;;;29.03;52.21
41254;BME280;26987;59.928;30.306;2023-08-01T04:00:31;100451.03;;;29.11;50.97
41254;BME280;26987;59.928;30.306;2023-08-01T04:03:00;100454.69;;;29.61;49.81
41254;BME280;26987;59.928;30.306;2023-08-01T04:05:28;100451.34;;;30.05;48.33
41254;BME280;26987;59.928;30.306;2023-08-01T04:07:56;100447.13;;;30.49;46.60
41254;BME280;26987;59.928;30.306;2023-08-01T04:10:24;100441.13;;;30.76;43.97
41254;BME280;26987;59.928;30.306;2023-08-01T04:12:53;100434.06;;;30.91;43.83
41254;BME280;26987;59.928;30.306;2023-08-01T04:15:21;100419.09;;;30.92;42.94
41254;BME280;26987;59.928;30.306;2023-08-01T04:17:49;100425.91;;;31.59;41.55
41254;BME280;26987;59.928;30.306;2023-08-01T04:20:16;100432.69;;;31.62;40.86
41254;BME280;26987;59.928;30.306;2023-08-01T04:22:44;100432.97;;;31.56;40.81
41254;BME280;26987;59.928;30.306;2023-08-01T04:25:12;100438.44;;;31.89;40.16
41254;BME280;26987;59.928;30.306;2023-08-01T04:27:40;100410.31;;;31.87;38.07
41254;BME280;26987;59.928;30.306;2023-08-01T04:30:10;100443.28;;;32.08;38.66
41254;BME280;26987;59.928;30.306;2023-08-01T04:32:38;100435.84;;;32.32;37.85
41254;BME280;26987;59.928;30.306;2023-08-01T04:35:06;100438.72;;;32.55;37.56
41254;BME280;26987;59.928;30.306;2023-08-01T04:37:34;100418.66;;;32.62;37.55
41254;BME280;26987;59.928;30.306;2023-08-01T04:40:02;100440.16;;;32.89;37.36
41254;BME280;26987;59.928;30.306;2023-08-01T04:42:32;100428.81;;;32.54;37.47
41254;BME280;26987;59.928;30.306;2023-08-01T04:45:00;100433.91;;;32.52;37.06
41254;BME280;26987;59.928;30.306;2023-08-01T04:47:29;100436.41;;;32.57;36.85
41254;BME280;26987;59.928;30.306;2023-08-01T04:49:57;100434.16;;;32.87;36.62
41254;BME280;26987;59.928;30.306;2023-08-01T04:52:25;100439.84;;;33.41;35.82
41254;BME280;26987;59.928;30.306;2023-08-01T04:54:52;100434.94;;;33.30;35.76
41254;BME280;26987;59.928;30.306;2023-08-01T04:57:20;100442.88;;;33.55;35.44
41254;BME280;26987;59.928;30.306;2023-08-01T04:59:48;100442.78;;;33.48;35.21
41254;BME280;26987;59.928;30.306;2023-08-01T05:02:16;100429.03;;;33.82;34.27
41254;BME280;26987;59.928;30.306;2023-08-01T05:04:45;100442.75;;;33.98;34.23
41254;BME280;26987;59.928;30.306;2023-08-01T05:07:13;100423.25;;;33.95;34.34
41254;BME280;26987;59.928;30.306;2023-08-01T05:09:41;100437.13;;;34.22;33.65
41254;BME280;26987;59.928;30.306;2023-08-01T05:12:08;100438.91;;;34.38;33.26
41254;BME280;26987;59.928;30.306;2023-08-01T05:14:36;100438.13;;;34.37;33.25
41254;BME280;26987;59.928;30.306;2023-08-01T05:17:04;100433.63;;;34.29;33.83
41254;BME280;26987;59.928;30.306;2023-08-01T05:19:32;100440.84;;;34.33;32.96
41254;BME280;26987;59.928;30.306;2023-08-01T05:22:01;100440.97;;;34.44;32.93
41254;BME280;26987;59.928;30.306;2023-08-01T05:24:32;100441.34;;;34.43;33.35
41254;BME280;26987;59.928;30.306;2023-08-01T05:27:00;100446.69;;;34.59;32.65
41254;BME280;26987;59.928;30.306;2023-08-01T05:29:28;100434.06;;;34.31;33.06
41254;BME280;26987;59.928;30.306;2023-08-01T05:31:56;100448.44;;;34.71;32.19
41254;BME280;26987;59.928;30.306;2023-08-01T05:34:23;100442.34;;;34.27;32.33
41254;BME280;26987;59.928;30.306;2023-08-01T05:36:51;100438.50;;;34.35;32.97
41254;BME280;26987;59.928;30.306;2023-08-01T05:39:21;100422.66;;;34.43;32.40
41254;BME280;26987;59.928;30.306;2023-08-01T05:41:48;100434.72;;;34.55;32.16
41254;BME280;26987;59.928;30.306;2023-08-01T05:44:17;100426.41;;;34.93;31.37
41254;BME280;26987;59.928;30.306;2023-08-01T05:46:44;100421.50;;;34.82;31.31
41254;BME280;26987;59.928;30.306;2023-08-01T05:49:12;100431.69;;;35.05;31.01
41254;BME280;26987;59.928;30.306;2023-08-01T05:51:40;100418.19;;;35.11;30.37
41254;BME280;26987;59.928;30.306;2023-08-01T05:54:08;100431.25;;;35.45;29.84
41254;BME280;26987;59.928;30.306;2023-08-01T05:56:37;100427.25;;;35.01;30.36
41254;BME280;26987;59.928;30.306;2023-08-01T05:59:05;100430.41;;;34.95;29.98
41254;BME280;26987;59.928;30.306;2023-08-01T06:01:33;100434.28;;;35.25;29.55
41254;BME280;26987;59.928;30.306;2023-08-01T06:04:02;100426.31;;;34.82;30.55
41254;BME280;26987;59.928;30.306;2023-08-01T06:06:29;100432.97;;;35.15;29.78
41254;BME280;26987;59.928;30.306;2023-08-01T06:08:57;100427.81;;;35.17;29.68
41254;BME280;26987;59.928;30.306;2023-08-01T06:11:25;100433.84;;;35.19;29.64
41254;BME280;26987;59.928;30.306;2023-08-01T06:13:54;100427.09;;;34.82;30.13
41254;BME280;26987;59.928;30.306;2023-08-01T06:16:22;100431.19;;;34.96;29.96
41254;BME280;26987;59.928;30.306;2023-08-01T06:18:50;100426.84;;;34.60;29.64
41254;BME280;26987;59.928;30.306;2023-08-01T06:21:18;100436.56;;;34.43;29.79
41254;BME280;26987;59.928;30.306;2023-08-01T06:23:46;100439.56;;;34.62;30.20
41254;BME280;26987;59.928;30.306;2023-08-01T06:26:14;100423.31;;;34.64;29.86
41254;BME280;26987;59.928;30.306;2023-08-01T06:28:42;100436.88;;;34.34;30.72
41254;BME280;26987;59.928;30.306;2023-08-01T06:31:11;100435.09;;;34.88;29.99
41254;BME280;26987;59.928;30.306;2023-08-01T06:33:39;100424.06;;;34.60;29.78
41254;BME280;26987;59.928;30.306;2023-08-01T06:36:07;100429.38;;;34.39;30.36
41254;BME280;26987;59.928;30.306;2023-08-01T06:38:35;100416.41;;;34.19;30.14
41254;BME280;26987;59.928;30.306;2023-08-01T06:41:03;100428.97;;;34.40;30.03
41254;BME280;26987;59.928;30.306;2023-08-01T06:43:31;100435.69;;;33.54;31.47
41254;BME280;26987;59.928;30.306;2023-08-01T06:45:58;100436.13;;;33.29;31.28
41254;BME280;26987;59.928;30.306;2023-08-01T06:48:28;100425.13;;;33.37;30.87
41254;BME280;26987;59.928;30.306;2023-08-01T06:50:55;100420.75;;;33.35;31.04
41254;BME280;26987;59.928;30.306;2023-08-01T06:53:23;100426.75;;;33.38;31.03
41254;BME280;26987;59.928;30.306;2023-08-01T06:55:52;100434.06;;;33.03;31.02
41254;BME280;26987;59.928;30.306;2023-08-01T06:58:19;100431.41;;;32.47;32.54
41254;BME280;26987;59.928;30.306;2023-08-01T07:00:47;100427.28;;;32.01;33.68
41254;BME280;26987;59.928;30.306;2023-08-01T07:03:15;100435.19;;;31.67;34.09
41254;BME280;26987;59.928;30.306;2023-08-01T07:05:44;100429.38;;;31.24;35.86
41254;BME280;26987;59.928;30.306;2023-08-01T07:08:12;100434.97;;;30.95;35.02
41254;BME280;26987;59.928;30.306;2023-08-01T07:10:40;100418.97;;;30.31;36.13
41254;BME280;26987;59.928;30.306;2023-08-01T07:13:08;100422.59;;;29.69;37.74
41254;BME280;26987;59.928;30.306;2023-08-01T07:15:36;100413.00;;;29.04;40.05
41254;BME280;26987;59.928;30.306;2023-08-01T07:18:03;100424.97;;;28.87;39.61
41254;BME280;26987;59.928;30.306;2023-08-01T07:20:31;100419.47;;;28.31;40.41
41254;BME280;26987;59.928;30.306;2023-08-01T07:23:00;100415.19;;;28.13;41.67
41254;BME280;26987;59.928;30.306;2023-08-01T07:25:28;100415.50;;;27.90;41.72
41254;BME280;26987;59.928;30.306;2023-08-01T07:27:56;100415.59;;;27.72;42.49
41254;BME280;26987;59.928;30.306;2023-08-01T07:30:24;100426.84;;;27.49;42.14
41254;BME280;26987;59.928;30.306;2023-08-01T07:32:52;100420.91;;;27.29;42.70
41254;BME280;26987;59.928;30.306;2023-08-01T07:35:20;100414.69;;;27.02;44.13
41254;BME280;26987;59.928;30.306;2023-08-01T07:37:47;100415.84;;;26.57;45.64
41254;BME280;26987;59.928;30.306;2023-08-01T07:40:17;100417.97;;;26.51;47.24
41254;BME280;26987;59.928;30.306;2023-08-01T07:42:45;100414.41;;;26.51;46.83
41254;BME280;26987;59.928;30.306;2023-08-01T07:45:13;100415.69;;;26.71;47.29
41254;BME280;26987;59.928;30.306;2023-08-01T07:47:41;100423.00;;;26.49;46.89
41254;BME280;26987;59.928;30.306;2023-08-01T07:50:09;100424.09;;;26.57;46.80
41254;BME280;26987;59.928;30.306;2023-08-01T07:52:37;100401.97;;;26.44;47.09
41254;BME280;26987;59.928;30.306;2023-08-01T07:55:06;100429.28;;;26.76;46.27
41254;BME280;26987;59.928;30.306;2023-08-01T07:57:35;100437.50;;;26.67;46.41
41254;BME280;26987;59.928;30.306;2023-08-01T08:00:04;100433.97;;;26.49;48.32
41254;BME280;26987;59.928;30.306;2023-08-01T08:02:41;100436.03;;;26.26;47.92
41254;BME280;26987;59.928;30.306;2023-08-01T08:05:09;100430.84;;;26.15;48.34
41254;BME280;26987;59.928;30.306;2023-08-01T08:07:37;100408.34;;;25.87;50.01
41254;BME280;26987;59.928;30.306;2023-08-01T08:10:06;100423.03;;;26.00;49.74
41254;BME280;26987;59.928;30.306;2023-08-01T08:12:35;100423.78;;;26.32;49.21
41254;BME280;26987;59.928;30.306;2023-08-01T08:15:03;100431.53;;;26.39;49.60
41254;BME280;26987;59.928;30.306;2023-08-01T08:17:31;100429.28;;;26.50;49.27
41254;BME280;26987;59.928;30.306;2023-08-01T08:19:59;100431.69;;;26.51;49.09
41254;BME280;26987;59.928;30.306;2023-08-01T08:22:27;100422.50;;;26.29;49.27
41254;BME280;26987;59.928;30.306;2023-08-01T08:24:55;100421.63;;;26.20;50.21
41254;BME280;26987;59.928;30.306;2023-08-01T08:27:23;100430.88;;;26.42;49.31
41254;BME280;26987;59.928;30.306;2023-08-01T08:29:52;100434.94;;;26.53;50.03
41254;BME280;26987;59.928;30.306;2023-08-01T08:32:20;100432.34;;;26.48;50.07
41254;BME280;26987;59.928;30.306;2023-08-01T08:34:47;100432.34;;;26.30;50.41
41254;BME280;26987;59.928;30.306;2023-08-01T08:37:15;100425.03;;;26.17;51.42
41254;BME280;26987;59.928;30.306;2023-08-01T08:39:43;100426.97;;;26.25;50.99
41254;BME280;26987;59.928;30.306;2023-08-01T08:42:11;100424.06;;;26.22;50.89
41254;BME280;26987;59.928;30.306;2023-08-01T08:44:42;100430.41;;;26.40;50.80
41254;BME280;26987;59.928;30.306;2023-08-01T08:47:16;100424.25;;;26.78;50.29
41254;BME280;26987;59.928;30.306;2023-08-01T08:49:45;100428.44;;;27.02;48.83
41254;BME280;26987;59.928;30.306;2023-08-01T08:52:14;100423.25;;;27.01;48.63
41254;BME280;26987;59.928;30.306;2023-08-01T08:54:42;100428.16;;;26.60;49.58
41254;BME280;26987;59.928;30.306;2023-08-01T08:57:11;100408.44;;;26.49;49.14
41254;BME280;26987;59.928;30.306;2023-08-01T08:59:39;100421.69;;;26.73;49.29
41254;BME280;26987;59.928;30.306;2023-08-01T09:02:07;100422.16;;;26.57;48.73
41254;BME280;26987;59.928;30.306;2023-08-01T09:04:36;100407.63;;;26.39;49.07
41254;BME280;26987;59.928;30.306;2023-08-01T09:07:08;100426.50;;;26.67;48.57
41254;BME280;26987;59.928;30.306;2023-08-01T09:09:37;100379.66;;;26.55;48.45
41254;BME280;26987;59.928;30.306;2023-08-01T09:12:06;100409.34;;;26.97;48.27
41254;BME280;26987;59.928;30.306;2023-08-01T09:14:35;100420.03;;;27.07;47.74
41254;BME280;26987;59.928;30.306;2023-08-01T09:17:07;100409.16;;;27.20;47.45
41254;BME280;26987;59.928;30.306;2023-08-01T09:19:37;100409.78;;;27.26;45.47
41254;BME280;26987;59.928;30.306;2023-08-01T09:22:10;100417.75;;;27.10;45.88
41254;BME280;26987;59.928;30.306;2023-08-01T09:24:38;100410.13;;;26.98;45.74
41254;BME280;26987;59.928;30.306;2023-08-01T09:27:06;100393.34;;;26.99;46.74
41254;BME280;26987;59.928;30.306;2023-08-01T09:29:35;100405.13;;;27.08;46.59
41254;BME280;26987;59.928;30.306;2023-08-01T09:32:12;100408.31;;;27.28;46.70
41254;BME280;26987;59.928;30.306;2023-08-01T09:34:42;100412.00;;;27.32;46.89
41254;BME280;26987;59.928;30.306;2023-08-01T09:37:10;100397.59;;;27.36;44.69
41254;BME280;26987;59.928;30.306;2023-08-01T09:39:38;100401.84;;;27.24;45.44
41254;BME280;26987;59.928;30.306;2023-08-01T09:42:06;100413.00;;;27.28;45.78
41254;BME280;26987;59.928;30.306;2023-08-01T09:44:35;100400.44;;;27.09;44.46
41254;BME280;26987;59.928;30.306;2023-08-01T09:47:05;100403.22;;;27.00;44.49
41254;BME280;26987;59.928;30.306;2023-08-01T09:49:35;100395.97;;;26.78;45.18
41254;BME280;26987;59.928;30.306;2023-08-01T09:52:05;100400.16;;;26.66;45.70
41254;BME280;26987;59.928;30.306;2023-08-01T09:54:33;100394.97;;;26.74;45.56
41254;BME280;26987;59.928;30.306;2023-08-01T09:57:02;100405.19;;;26.73;43.81
41254;BME280;26987;59.928;30.306;2023-08-01T09:59:33;100399.38;;;26.66;43.25
41254;BME280;26987;59.928;30.306;2023-08-01T10:02:01;100390.28;;;26.74;44.06
41254;BME280;26987;59.928;30.306;2023-08-01T10:04:32;100407.09;;;26.81;44.50
41254;BME280;26987;59.928;30.306;2023-08-01T10:07:11;100400.66;;;26.68;45.13
41254;BME280;26987;59.928;30.306;2023-08-01T10:09:40;100396.81;;;26.43;46.31
41254;BME280;26987;59.928;30.306;2023-08-01T10:12:09;100402.75;;;26.72;45.72
41254;BME280;26987;59.928;30.306;2023-08-01T10:14:40;100389.66;;;26.68;45.06
41254;BME280;26987;59.928;30.306;2023-08-01T10:17:10;100377.69;;;26.73;44.96
41254;BME280;26987;59.928;30.306;2023-08-01T10:19:39;100404.97;;;26.96;44.11
41254;BME280;26987;59.928;30.306;2023-08-01T10:22:11;100411.47;;;26.82;42.84
41254;BME280;26987;59.928;30.306;2023-08-01T10:24:39;100406.44;;;26.85;43.41
41254;BME280;26987;59.928;30.306;2023-08-01T10:27:14;100401.59;;;26.81;43.72
41254;BME280;26987;59.928;30.306;2023-08-01T10:29:42;100385.63;;;26.75;43.22
41254;BME280;26987;59.928;30.306;2023-08-01T10:32:11;100384.84;;;26.56;43.99
41254;BME280;26987;59.928;30.306;2023-08-01T10:34:38;100401.31;;;26.65;43.81
41254;BME280;26987;59.928;30.306;2023-08-01T10:37:06;100401.63;;;26.64;43.70
41254;BME280;26987;59.928;30.306;2023-08-01T10:39:35;100411.31;;;26.88;42.66
41254;BME280;26987;59.928;30.306;2023-08-01T10:42:04;100406.28;;;26.90;41.38
41254;BME280;26987;59.928;30.306;2023-08-01T10:44:33;100400.94;;;26.85;41.69
41254;BME280;26987;59.928;30.306;2023-08-01T10:47:03;100402.25;;;26.78;41.82
41254;BME280;26987;59.928;30.306;2023-08-01T10:49:36;100390.16;;;26.62;42.90
41254;BME280;26987;59.928;30.306;2023-08-01T10:52:16;100388.38;;;26.66;43.51
41254;BME280;26987;59.928;30.306;2023-08-01T10:54:46;100408.41;;;26.57;43.43
41254;BME280;26987;59.928;30.306;2023-08-01T10:57:18;100417.31;;;26.45;43.79
41254;BME280;26987;59.928;30.306;2023-08-01T10:59:46;100407.41;;;26.18;44.31
41254;BME280;26987;59.928;30.306;2023-08-01T11:02:19;100397.88;;;26.06;44.35
41254;BME280;26987;59.928;30.306;2023-08-01T11:04:55;100404.31;;;26.02;44.87
41254;BME280;26987;59.928;30.306;2023-08-01T11:07:23;100399.97;;;26.10;44.04
41254;BME280;26987;59.928;30.306;2023-08-01T11:10:04;100406.97;;;26.34;43.52
41254;BME280;26987;59.928;30.306;2023-08-01T11:12:34;100400.63;;;26.24;42.84
41254;BME280;26987;59.928;30.306;2023-08-01T11:15:03;100400.94;;;26.14;43.34
41254;BME280;26987;59.928;30.306;2023-08-01T11:17:32;100402.88;;;26.04;43.49
41254;BME280;26987;59.928;30.306;2023-08-01T11:20:01;100392.03;;;25.81;44.23
41254;BME280;26987;59.928;30.306;2023-08-01T11:22:30;100405.25;;;25.79;44.04
41254;BME280;26987;59.928;30.306;2023-08-01T11:24:58;100406.72;;;25.86;43.01
41254;BME280;26987;59.928;30.306;2023-08-01T11:27:28;100391.03;;;25.86;43.54
41254;BME280;26987;59.928;30.306;2023-08-01T11:29:56;100391.56;;;25.97;43.43
41254;BME280;26987;59.928;30.306;2023-08-01T11:32:33;100380.44;;;26.11;42.09
41254;BME280;26987;59.928;30.306;2023-08-01T11:35:01;100404.84;;;26.13;42.69
41254;BME280;26987;59.928;30.306;2023-08-01T11:37:30;100388.66;;;26.02;43.09
41254;BME280;26987;59.928;30.306;2023-08-01T11:39:59;100402.41;;;26.02;41.27
41254;BME280;26987;59.928;30.306;2023-08-01T11:42:31;100400.13;;;26.04;41.11
41254;BME280;26987;59.928;30.306;2023-08-01T11:45:10;100385.59;;;26.13;41.08
41254;BME280;26987;59.928;30.306;2023-08-01T11:47:45;100387.22;;;26.23;41.10
41254;BME280;26987;59.928;30.306;2023-08-01T11:50:12;100401.78;;;26.67;40.95
41254;BME280;26987;59.928;30.306;2023-08-01T11:52:40;100398.09;;;26.45;40.72
41254;BME280;26987;59.928;30.306;2023-08-01T11:55:18;100390.66;;;26.46;40.35
41254;BME280;26987;59.928;30.306;2023-08-01T11:57:58;100388.06;;;26.32;40.91
41254;BME280;26987;59.928;30.306;2023-08-01T12:00:27;100389.13;;;26.13;41.00
41254;BME280;26987;59.928;30.306;2023-08-01T12:03:04;100383.81;;;26.26;41.44
41254;BME280;26987;59.928;30.306;2023-08-01T12:05:33;100382.06;;;26.30;40.87
41254;BME280;26987;59.928;30.306;2023-08-01T12:08:11;100385.31;;;26.50;40.17
41254;BME280;26987;59.928;30.306;2023-08-01T12:10:40;100371.88;;;26.48;39.12
41254;BME280;26987;59.928;30.306;2023-08-01T12:13:20;100363.50;;;26.53;39.58
41254;BME280;26987;59.928;30.306;2023-08-01T12:15:49;100371.56;;;26.41;39.49
41254;BME280;26987;59.928;30.306;2023-08-01T12:18:21;100373.34;;;26.45;38.12
41254;BME280;26987;59.928;30.306;2023-08-01T12:20:49;100372.41;;;26.32;38.36
41254;BME280;26987;59.928;30.306;2023-08-01T12:23:17;100360.06;;;26.21;38.72
41254;BME280;26987;59.928;30.306;2023-08-01T12:25:46;100364.13;;;26.24;39.14
41254;BME280;26987;59.928;30.306;2023-08-01T12:28:14;100358.66;;;26.32;39.05
41254;BME280;26987;59.928;30.306;2023-08-01T12:30:43;100372.50;;;26.27;39.03
41254;BME280;26987;59.928;30.306;2023-08-01T12:33:11;100360.38;;;26.19;38.68
41254;BME280;26987;59.928;30.306;2023-08-01T12:35:40;100352.78;;;26.25;39.20
41254;BME280;26987;59.928;30.306;2023-08-01T12:38:09;100347.16;;;26.39;38.98
41254;BME280;26987;59.928;30.306;2023-08-01T12:40:37;100354.94;;;26.46;39.30
41254;BME280;26987;59.928;30.306;2023-08-01T12:43:04;100358.94;;;26.57;39.44
41254;BME280;26987;59.928;30.306;2023-08-01T12:45:32;100356.50;;;26.65;39.33